Decoded Metar for PAHN (HAINES in AK, USA) (IATA:HNS) | Meteo·Mobile Aviation Weather
aviador You're here:

PAHN Decoded Metar

HAINES in AK, USA
Report Time2018-08-18 04:54:00
UTC Time2018-08-18 05:08:23
Flight Rules vfr VFR
Wind080° at 08 kt
W.Decomp.*RWY 08: 7.5 kt HW 2.7 kt LCW
W.Rank080° ranks 7
Current wind is below 080° avg. (8.6)
Visibility9999 m
Phenomena:N/A
Clouds:N/A
Expected CloudBase > 2,800 ft AGL from Temp-Dew spread
CeilingNone
Temp14°C (ISA -1)
Dew Point07°C (63% RH)
AAT10.4°C
QNH1025 hPa
Density Alt-367 ft
Elevation16 ft
Report Wrong Elevation
Raw Report
PAHN 180454Z AUTO 08008KT 10SM CLR 14/07 A3026 RMK AO2 SLP248
T01440072 TSNO=

Extra information for PAHN:More info

Metar Taf Metar & Taf Last 4 Metars F.Rules Stats Wind Profile Meteogram Temp Stats Airport Information Weather charts Add Link Nearby VenuesMetar ALERT Operation Metar Decoded Social comments

AIRNAV info for PAHN